Time;durP1;ratioP1;P1;durP2;ratioP2;P2;SDS_P1;SDS_P2;PMS_P1;PMS_P2;Temp;Humidity;BMP_temperature;BMP_pressure;BME280_temperature;BME280_humidity;BME280_pressure;Samples;Min_cycle;Max_cycle;Signal;HPM_P1;HPM_P2
2021/07/04 00:00:42;;;;;;;6.47;2.70;;;26.20;84.40;;;;;;6189430;23;20493;-92
2021/07/04 00:03:09;;;;;;;2.90;2.70;;;26.00;84.20;;;;;;6188834;23;20406;-92
2021/07/04 00:05:39;;;;;;;3.67;2.87;;;26.20;84.60;;;;;;6187583;23;20417;-93
2021/07/04 00:08:08;;;;;;;3.00;2.80;;;26.10;84.40;;;;;;6188373;23;20781;-92
2021/07/04 00:10:37;;;;;;;2.80;2.60;;;26.00;84.20;;;;;;6187405;23;20441;-92
2021/07/04 00:13:04;;;;;;;2.67;2.47;;;26.00;84.30;;;;;;6188926;23;20461;-92
2021/07/04 00:15:38;;;;;;;2.87;2.67;;;26.20;84.50;;;;;;6187898;23;20410;-92
2021/07/04 00:18:07;;;;;;;2.77;2.50;;;25.90;84.20;;;;;;6188747;23;20409;-93
2021/07/04 00:20:34;;;;;;;3.00;2.80;;;26.00;84.30;;;;;;6187579;23;20417;-92
2021/07/04 00:23:01;;;;;;;3.00;2.80;;;26.00;84.40;;;;;;6187916;23;20420;-92
2021/07/04 00:25:30;;;;;;;2.70;2.50;;;26.00;84.40;;;;;;6187151;23;20496;-93
2021/07/04 00:27:57;;;;;;;2.80;2.60;;;26.00;84.30;;;;;;6186894;23;20925;-93
2021/07/04 00:30:25;;;;;;;3.13;2.80;;;26.00;84.50;;;;;;6187285;23;20525;-92
2021/07/04 00:32:52;;;;;;;2.80;2.60;;;26.10;84.50;;;;;;6161404;23;20409;-92
2021/07/04 00:35:22;;;;;;;2.63;2.50;;;26.00;84.40;;;;;;6187238;23;20410;-93
2021/07/04 00:37:52;;;;;;;3.10;2.90;;;26.00;84.30;;;;;;6188274;23;20415;-92
2021/07/04 00:40:20;;;;;;;3.03;2.83;;;26.00;84.50;;;;;;6187320;23;20437;-92
2021/07/04 00:42:47;;;;;;;2.93;2.73;;;26.00;84.50;;;;;;6186890;23;20504;-92
2021/07/04 00:45:16;;;;;;;2.17;2.07;;;26.10;84.50;;;;;;6187556;23;20409;-92
2021/07/04 00:47:43;;;;;;;3.00;2.37;;;26.00;84.30;;;;;;6187381;23;20403;-92
2021/07/04 00:50:11;;;;;;;2.97;2.77;;;26.10;84.50;;;;;;6187776;23;20955;-92
2021/07/04 00:52:41;;;;;;;2.73;2.53;;;26.00;84.30;;;;;;6207419;23;20882;-93
2021/07/04 00:55:09;;;;;;;2.80;2.63;;;26.00;84.40;;;;;;6208084;23;20946;-92
2021/07/04 00:57:38;;;;;;;2.37;2.17;;;26.00;84.30;;;;;;6183663;23;20438;-90
2021/07/04 01:00:08;;;;;;;2.83;2.63;;;26.00;84.30;;;;;;6199829;23;20466;-92
2021/07/04 01:02:35;;;;;;;2.40;2.30;;;26.00;84.30;;;;;;6192401;23;20478;-93
2021/07/04 01:05:03;;;;;;;2.77;2.57;;;26.00;84.30;;;;;;6190411;23;20414;-93
2021/07/04 01:07:30;;;;;;;2.83;2.63;;;26.10;84.40;;;;;;6187877;23;20494;-93
2021/07/04 01:09:58;;;;;;;2.37;2.20;;;26.00;84.40;;;;;;6188622;23;20984;-93
2021/07/04 01:12:25;;;;;;;2.63;2.43;;;26.00;84.40;;;;;;6187026;23;20407;-93
2021/07/04 01:14:52;;;;;;;2.23;2.13;;;26.10;84.40;;;;;;6186887;23;20432;-93
2021/07/04 01:17:19;;;;;;;2.80;2.60;;;26.00;84.20;;;;;;6187188;23;20411;-93
2021/07/04 01:19:47;;;;;;;2.63;2.47;;;26.00;84.30;;;;;;6187753;23;20401;-93
2021/07/04 01:22:16;;;;;;;2.97;2.67;;;26.00;84.40;;;;;;6186718;23;20489;-93
2021/07/04 01:24:45;;;;;;;2.20;2.00;;;26.10;84.40;;;;;;6188006;23;20434;-93
2021/07/04 01:27:12;;;;;;;2.87;2.70;;;26.10;84.40;;;;;;6189571;23;20481;-93
2021/07/04 01:29:40;;;;;;;2.57;2.43;;;26.00;84.30;;;;;;6188390;23;20451;-93
2021/07/04 01:32:07;;;;;;;3.10;2.90;;;26.00;84.30;;;;;;6188158;23;20420;-93
2021/07/04 01:34:34;;;;;;;2.63;2.43;;;26.00;84.20;;;;;;6187191;23;20450;-93
2021/07/04 01:37:01;;;;;;;3.00;2.80;;;26.10;84.40;;;;;;6187986;23;20492;-93
2021/07/04 01:39:30;;;;;;;2.67;2.53;;;26.00;84.30;;;;;;6188015;23;20863;-93
2021/07/04 01:41:58;;;;;;;2.80;2.60;;;26.00;84.20;;;;;;6187885;23;20497;-93
2021/07/04 01:44:25;;;;;;;2.83;2.63;;;26.10;84.30;;;;;;6187828;23;20821;-93
2021/07/04 01:46:52;;;;;;;3.03;2.83;;;26.00;84.20;;;;;;6187458;23;20489;-93
2021/07/04 01:49:19;;;;;;;2.40;2.30;;;26.00;84.40;;;;;;6186719;23;20745;-94
2021/07/04 01:51:46;;;;;;;2.50;2.40;;;26.10;84.40;;;;;;6187388;23;20781;-93
2021/07/04 01:54:13;;;;;;;2.73;2.53;;;26.00;84.20;;;;;;6186834;23;20404;-93
2021/07/04 01:56:40;;;;;;;2.70;2.50;;;26.00;84.30;;;;;;6186699;23;20414;-92
2021/07/04 01:59:08;;;;;;;2.50;2.40;;;26.10;84.30;;;;;;6187299;23;20414;-91
2021/07/04 02:01:35;;;;;;;2.70;2.53;;;26.00;84.10;;;;;;6187095;23;20707;-93
2021/07/04 02:04:04;;;;;;;2.50;2.37;;;26.00;84.20;;;;;;6187082;23;20885;-93
2021/07/04 02:06:32;;;;;;;2.87;2.67;;;26.00;84.20;;;;;;6187448;23;20411;-92
2021/07/04 02:08:59;;;;;;;2.57;2.47;;;26.00;84.20;;;;;;6187432;23;20464;-92
2021/07/04 02:11:26;;;;;;;2.60;2.40;;;26.00;84.40;;;;;;6186651;23;20471;-93
2021/07/04 02:13:53;;;;;;;2.83;2.63;;;26.00;84.30;;;;;;6187748;23;20434;-93
2021/07/04 02:16:22;;;;;;;2.50;2.40;;;26.00;84.20;;;;;;6187142;23;20485;-93
2021/07/04 02:18:50;;;;;;;2.77;2.57;;;26.00;84.30;;;;;;6187830;23;20406;-93
2021/07/04 02:21:19;;;;;;;2.23;2.13;;;26.10;84.30;;;;;;6185953;23;20420;-93
2021/07/04 02:23:46;;;;;;;2.33;2.13;;;26.00;84.20;;;;;;6186369;23;20447;-92
2021/07/04 02:26:13;;;;;;;2.67;2.57;;;26.00;84.20;;;;;;6187578;23;20414;-92
2021/07/04 02:28:40;;;;;;;2.10;2.00;;;25.90;84.10;;;;;;6186641;23;20571;-93
2021/07/04 02:31:06;;;;;;;2.77;2.57;;;25.90;84.20;;;;;;6186620;23;20817;-91
2021/07/04 02:33:35;;;;;;;2.37;2.10;;;26.00;84.50;;;;;;6188643;23;20869;-93
2021/07/04 02:36:01;;;;;;;3.10;2.57;;;26.00;84.30;;;;;;6189030;23;20878;-91
2021/07/04 02:38:28;;;;;;;2.87;2.67;;;26.00;84.20;;;;;;6189365;23;20406;-92
2021/07/04 02:40:56;;;;;;;2.57;2.47;;;26.10;84.50;;;;;;6188638;23;20412;-93
2021/07/04 02:43:33;;;;;;;2.20;2.10;;;25.90;84.30;;;;;;6188476;23;20432;-93
2021/07/04 02:46:00;;;;;;;2.47;2.37;;;26.10;84.40;;;;;;6162982;23;20470;-92
2021/07/04 02:48:27;;;;;;;2.10;2.00;;;26.00;84.20;;;;;;6159496;23;20414;-92
2021/07/04 02:50:56;;;;;;;2.07;1.97;;;25.90;84.20;;;;;;6159178;23;20445;-93
2021/07/04 02:53:22;;;;;;;2.77;2.57;;;26.00;84.20;;;;;;6158823;23;20816;-93
2021/07/04 02:55:50;;;;;;;2.30;2.20;;;26.10;84.30;;;;;;6158947;23;20410;-93
2021/07/04 02:58:17;;;;;;;2.63;2.47;;;26.00;84.20;;;;;;6158866;23;20898;-93
2021/07/04 03:00:45;;;;;;;2.70;2.57;;;25.90;84.10;;;;;;6158707;23;20404;-93
2021/07/04 03:03:12;;;;;;;2.97;2.77;;;25.90;84.10;;;;;;6158335;23;20760;-93
2021/07/04 03:05:39;;;;;;;2.90;2.80;;;25.90;84.20;;;;;;6158370;23;20414;-93
2021/07/04 03:08:08;;;;;;;2.47;2.37;;;25.90;84.30;;;;;;6159278;23;20498;-93
2021/07/04 03:10:35;;;;;;;2.00;1.90;;;25.90;84.40;;;;;;6158663;23;20438;-93
2021/07/04 03:13:02;;;;;;;2.50;2.30;;;25.90;85.20;;;;;;6158321;23;20418;-93
2021/07/04 03:15:29;;;;;;;2.73;2.60;;;25.90;84.30;;;;;;6158307;23;20400;-93
2021/07/04 03:17:56;;;;;;;2.80;2.70;;;26.00;84.50;;;;;;6158947;23;20875;-93
2021/07/04 03:20:23;;;;;;;2.47;2.37;;;25.90;84.50;;;;;;6158688;23;20871;-93
2021/07/04 03:22:50;;;;;;;2.80;2.70;;;25.90;84.30;;;;;;6158083;23;20491;-93
2021/07/04 03:25:18;;;;;;;2.27;2.17;;;26.00;84.70;;;;;;6159576;23;20943;-93
2021/07/04 03:28:02;;;;;;;3.20;3.00;;;25.90;84.60;;;;;;6158839;23;20421;-93
2021/07/04 03:30:28;;;;;;;2.60;2.50;;;26.00;84.60;;;;;;6158364;23;20446;-93
2021/07/04 03:32:55;;;;;;;2.80;2.60;;;25.90;84.60;;;;;;6162888;23;20422;-93
2021/07/04 03:35:22;;;;;;;2.53;2.43;;;25.90;84.40;;;;;;6185928;23;20430;-93
2021/07/04 03:37:49;;;;;;;2.70;2.50;;;25.90;84.50;;;;;;6165474;23;20397;-93
2021/07/04 03:40:19;;;;;;;3.20;3.00;;;26.00;84.50;;;;;;6164140;23;20493;-92
2021/07/04 03:42:46;;;;;;;2.30;2.20;;;25.90;85.40;;;;;;6176687;23;20455;-91
2021/07/04 03:45:14;;;;;;;2.93;2.73;;;25.90;84.50;;;;;;6179446;23;20422;-91
2021/07/04 03:47:41;;;;;;;2.30;2.20;;;26.00;84.50;;;;;;6179518;23;20388;-91
2021/07/04 03:50:08;;;;;;;2.97;2.77;;;25.90;84.50;;;;;;6179562;23;20435;-91
2021/07/04 03:52:35;;;;;;;2.73;2.60;;;26.00;84.60;;;;;;6178811;23;20482;-90
2021/07/04 03:55:02;;;;;;;3.37;3.17;;;26.00;84.60;;;;;;6166194;23;20438;-93
2021/07/04 03:57:32;;;;;;;2.80;2.60;;;25.90;84.70;;;;;;6158529;23;20415;-93
2021/07/04 04:00:00;;;;;;;2.90;2.70;;;25.90;84.90;;;;;;6158436;23;20407;-94
2021/07/04 04:02:28;;;;;;;2.60;2.50;;;25.90;84.80;;;;;;6158171;23;20786;-93
2021/07/04 04:04:55;;;;;;;2.83;2.63;;;25.90;84.80;;;;;;6158133;23;20962;-94
2021/07/04 04:07:22;;;;;;;3.27;3.00;;;25.90;85.00;;;;;;6187962;23;20420;-93
2021/07/04 04:09:51;;;;;;;2.80;2.60;;;25.90;84.90;;;;;;6187560;23;20413;-93
2021/07/04 04:12:18;;;;;;;2.30;2.20;;;25.90;84.90;;;;;;6187833;23;20418;-93
2021/07/04 04:14:46;;;;;;;2.70;2.50;;;26.00;84.90;;;;;;6187646;23;20433;-93
2021/07/04 04:17:13;;;;;;;2.87;2.67;;;25.90;84.70;;;;;;6188195;23;20412;-93
2021/07/04 04:19:40;;;;;;;3.60;3.30;;;25.90;84.80;;;;;;6187688;23;20493;-93
2021/07/04 04:22:08;;;;;;;2.77;2.60;;;25.90;84.90;;;;;;6187947;23;20917;-93
2021/07/04 04:24:35;;;;;;;3.53;3.33;;;25.90;84.80;;;;;;6187396;23;20414;-93
2021/07/04 04:27:02;;;;;;;2.80;2.70;;;25.90;84.60;;;;;;6187799;23;20404;-93
2021/07/04 04:29:28;;;;;;;3.17;2.97;;;25.90;84.90;;;;;;6188005;23;20410;-93
2021/07/04 04:31:57;;;;;;;2.97;2.77;;;26.00;85.00;;;;;;6187195;23;20481;-93
2021/07/04 04:34:24;;;;;;;2.97;2.77;;;25.90;85.00;;;;;;6187661;23;20421;-93
2021/07/04 04:36:50;;;;;;;2.60;2.40;;;25.90;84.80;;;;;;6186811;23;20410;-93
2021/07/04 04:39:20;;;;;;;2.33;2.23;;;26.00;85.00;;;;;;6187548;23;20493;-93
2021/07/04 04:41:47;;;;;;;2.83;2.63;;;26.00;85.10;;;;;;6187666;23;20904;-93
2021/07/04 04:44:14;;;;;;;2.50;2.33;;;26.00;85.10;;;;;;6187732;23;20451;-93
2021/07/04 04:46:41;;;;;;;2.90;2.70;;;25.90;85.10;;;;;;6187104;23;20465;-93
2021/07/04 04:49:10;;;;;;;2.90;2.70;;;25.90;85.10;;;;;;6186922;23;20406;-93
2021/07/04 04:51:37;;;;;;;2.40;2.27;;;25.90;85.20;;;;;;6187787;23;20455;-93
2021/07/04 04:54:04;;;;;;;2.40;2.30;;;25.90;85.00;;;;;;6187657;23;20404;-93
2021/07/04 04:56:43;;;;;;;2.37;2.27;;;25.90;84.90;;;;;;6187507;23;20909;-93
2021/07/04 04:59:10;;;;;;;3.03;2.83;;;25.90;84.80;;;;;;6187028;23;20421;-93
2021/07/04 05:01:37;;;;;;;2.43;2.27;;;25.90;85.00;;;;;;6187172;23;20434;-94
2021/07/04 05:04:06;;;;;;;2.67;2.47;;;25.90;85.00;;;;;;6186794;23;20417;-93
2021/07/04 05:06:35;;;;;;;3.03;2.83;;;25.90;84.90;;;;;;6187195;23;20409;-93
2021/07/04 05:09:02;;;;;;;2.80;2.60;;;25.90;84.90;;;;;;6187371;23;20463;-93
2021/07/04 05:11:29;;;;;;;2.30;2.20;;;25.90;84.90;;;;;;6186858;23;20456;-93
2021/07/04 05:13:55;;;;;;;2.60;2.50;;;25.90;84.90;;;;;;6186779;23;20454;-93
2021/07/04 05:16:22;;;;;;;2.90;2.70;;;25.90;85.10;;;;;;6187148;23;20429;-93
2021/07/04 05:18:49;;;;;;;2.90;2.70;;;25.90;85.00;;;;;;6187345;23;20421;-93
2021/07/04 05:21:16;;;;;;;2.33;2.23;;;25.90;85.10;;;;;;6187108;23;20717;-93
2021/07/04 05:23:44;;;;;;;2.47;2.33;;;25.90;85.00;;;;;;6187564;23;20411;-93
2021/07/04 05:26:11;;;;;;;2.80;2.60;;;25.90;85.00;;;;;;6187127;23;20405;-94
2021/07/04 05:28:39;;;;;;;2.50;2.40;;;26.00;85.20;;;;;;6187969;23;20470;-93
2021/07/04 05:31:06;;;;;;;2.60;2.50;;;25.90;85.20;;;;;;6187171;23;20493;-93
2021/07/04 05:33:33;;;;;;;3.37;3.17;;;25.90;85.20;;;;;;6199411;23;20429;-93
2021/07/04 05:36:11;;;;;;;3.03;2.83;;;25.90;85.20;;;;;;6208967;23;20414;-93
2021/07/04 05:38:40;;;;;;;3.10;2.90;;;25.90;85.20;;;;;;6190772;23;20406;-93
2021/07/04 05:41:09;;;;;;;2.63;2.50;;;25.90;85.20;;;;;;6189516;23;20497;-93
2021/07/04 05:43:36;;;;;;;3.30;3.10;;;26.00;85.40;;;;;;6190990;23;20430;-93
2021/07/04 05:46:03;;;;;;;2.70;2.57;;;25.90;85.30;;;;;;6190328;23;20437;-93
2021/07/04 05:48:30;;;;;;;3.30;3.10;;;26.00;85.40;;;;;;6189185;23;20498;-93
2021/07/04 05:50:57;;;;;;;2.90;2.80;;;26.00;85.40;;;;;;6188285;23;20466;-93
2021/07/04 05:53:24;;;;;;;3.20;3.00;;;26.00;85.40;;;;;;6188375;23;20415;-93
2021/07/04 05:55:52;;;;;;;3.43;3.23;;;25.90;85.50;;;;;;6190160;23;20444;-92
2021/07/04 05:58:21;;;;;;;3.00;2.80;;;26.00;85.60;;;;;;6188675;23;20429;-93
2021/07/04 06:00:48;;;;;;;3.30;3.10;;;26.00;85.60;;;;;;6188728;23;20415;-93
2021/07/04 06:03:15;;;;;;;3.10;2.90;;;25.90;85.60;;;;;;6187797;23;20734;-92
2021/07/04 06:05:42;;;;;;;3.00;2.80;;;25.90;85.70;;;;;;6195693;23;20411;-91
2021/07/04 06:08:09;;;;;;;3.30;3.10;;;25.90;85.70;;;;;;6198989;23;20403;-91
2021/07/04 06:10:36;;;;;;;2.70;2.50;;;25.90;85.70;;;;;;6199006;23;20502;-93
2021/07/04 06:13:04;;;;;;;3.40;3.20;;;25.90;85.70;;;;;;6194448;23;20419;-92
2021/07/04 06:15:32;;;;;;;3.60;3.40;;;25.90;85.60;;;;;;6194876;23;20496;-93
2021/07/04 06:17:59;;;;;;;3.70;3.40;;;25.90;85.70;;;;;;6190911;23;20438;-93
2021/07/04 06:20:26;;;;;;;2.70;2.60;;;25.90;85.70;;;;;;6188115;23;20449;-92
2021/07/04 06:22:54;;;;;;;3.17;2.97;;;25.90;85.70;;;;;;6186364;23;20442;-93
2021/07/04 06:25:22;;;;;;;3.40;3.20;;;25.90;85.70;;;;;;6161578;23;20435;-93
2021/07/04 06:27:49;;;;;;;3.40;3.20;;;25.90;85.70;;;;;;6187619;23;20461;-93
2021/07/04 06:30:17;;;;;;;3.67;3.47;;;26.00;85.70;;;;;;6186941;23;20414;-93
2021/07/04 06:32:45;;;;;;;2.50;2.40;;;25.90;85.60;;;;;;6186471;23;20853;-93
2021/07/04 06:35:13;;;;;;;3.17;2.97;;;26.00;85.70;;;;;;6187063;23;20417;-93
2021/07/04 06:37:40;;;;;;;2.80;2.60;;;25.90;85.70;;;;;;6187186;23;20442;-93
2021/07/04 06:40:09;;;;;;;2.83;2.63;;;26.00;85.60;;;;;;6186996;23;20493;-93
2021/07/04 06:42:36;;;;;;;3.30;3.10;;;26.00;85.60;;;;;;6187093;23;20500;-93
2021/07/04 06:45:05;;;;;;;2.60;2.50;;;26.00;86.30;;;;;;6187244;23;20432;-93
2021/07/04 06:47:32;;;;;;;2.40;2.30;;;26.00;85.30;;;;;;6188315;23;20407;-93
2021/07/04 06:50:00;;;;;;;2.57;2.47;;;26.00;85.20;;;;;;6186483;23;20568;-93
2021/07/04 06:52:27;;;;;;;2.50;2.40;;;26.00;85.10;;;;;;6187227;23;20481;-93
2021/07/04 06:54:54;;;;;;;2.70;2.60;;;26.00;85.00;;;;;;6186428;23;20528;-94
2021/07/04 06:57:29;;;;;;;3.00;2.80;;;26.00;84.90;;;;;;6186026;23;20504;-94
2021/07/04 07:00:01;;;;;;;3.60;3.30;;;26.10;85.20;;;;;;6187456;23;20394;-94
2021/07/04 07:02:29;;;;;;;3.37;3.17;;;26.00;85.40;;;;;;6186202;23;20725;-94
2021/07/04 07:04:56;;;;;;;3.67;3.37;;;26.00;85.50;;;;;;6186115;23;20415;-94
2021/07/04 07:07:24;;;;;;;3.50;3.30;;;26.10;85.60;;;;;;6186037;23;20512;-94
2021/07/04 07:09:51;;;;;;;3.27;3.07;;;26.00;85.60;;;;;;6186482;23;20426;-94
2021/07/04 07:12:18;;;;;;;3.00;2.80;;;26.00;85.60;;;;;;6185506;23;20450;-94
2021/07/04 07:14:45;;;;;;;7.67;5.40;;;26.00;86.40;;;;;;6185653;23;20968;-95
2021/07/04 07:24:25;;;;;;;11.73;9.70;;;26.00;89.50;;;;;;6058864;23;3208621;-92
2021/07/04 07:28:03;;;;;;;9.97;9.17;;;25.90;90.30;;;;;;6208276;23;20202;-92
2021/07/04 07:30:40;;;;;;;9.60;8.80;;;25.80;90.50;;;;;;6184075;23;20377;-96
2021/07/04 07:35:50;;;;;;;7.73;7.03;;;25.80;90.00;;;;;;6197889;23;20448;-94
2021/07/04 07:38:24;;;;;;;8.67;6.13;;;25.70;90.00;;;;;;6203720;23;20458;-92
2021/07/04 07:41:00;;;;;;;7.00;6.43;;;25.90;89.00;;;;;;6198533;23;20421;-93
2021/07/04 07:53:39;;;;;;;6.97;6.27;;;26.00;87.50;;;;;;6159185;23;20423;-96
2021/07/04 07:56:07;;;;;;;6.60;6.07;;;26.00;87.60;;;;;;6160982;23;20436;-95
2021/07/04 07:58:34;;;;;;;6.80;6.17;;;26.00;87.70;;;;;;6160789;23;20567;-96
2021/07/04 08:01:01;;;;;;;6.00;5.43;;;26.00;87.80;;;;;;6158839;23;20411;-96
2021/07/04 08:03:28;;;;;;;8.00;7.30;;;26.00;88.00;;;;;;6162514;23;20399;-96
2021/07/04 08:05:55;;;;;;;6.93;5.60;;;26.00;87.80;;;;;;6163140;23;20783;-95
2021/07/04 08:08:23;;;;;;;5.90;5.30;;;26.00;87.80;;;;;;6162265;23;20579;-96
2021/07/04 08:10:50;;;;;;;6.43;5.83;;;26.20;87.70;;;;;;6158756;23;20494;-95
2021/07/04 08:13:18;;;;;;;8.03;5.87;;;26.10;87.60;;;;;;6159452;23;20451;-96
2021/07/04 08:15:45;;;;;;;5.83;5.37;;;26.10;87.60;;;;;;6160330;23;20407;-94
2021/07/04 08:18:11;;;;;;;5.90;5.37;;;26.10;88.40;;;;;;6158266;23;20407;-94
2021/07/04 08:20:38;;;;;;;6.47;5.50;;;26.10;87.60;;;;;;6157974;23;20906;-95
2021/07/04 08:23:06;;;;;;;6.13;5.53;;;26.10;87.60;;;;;;6161221;23;20434;-95
2021/07/04 08:25:34;;;;;;;6.60;6.03;;;26.20;87.60;;;;;;6168971;23;20429;-96
2021/07/04 08:28:01;;;;;;;7.83;6.70;;;26.10;87.40;;;;;;6166699;23;20438;-96
2021/07/04 08:30:29;;;;;;;6.43;5.93;;;26.10;87.40;;;;;;6165255;23;20418;-96
2021/07/04 08:32:58;;;;;;;7.40;6.17;;;26.10;87.10;;;;;;6167357;23;20860;-96
2021/07/04 08:35:25;;;;;;;6.30;5.70;;;26.20;87.20;;;;;;6165510;23;20423;-96
2021/07/04 08:37:52;;;;;;;6.60;6.10;;;26.20;87.10;;;;;;6166677;23;20407;-96
2021/07/04 08:40:19;;;;;;;6.30;5.77;;;26.20;87.10;;;;;;6161935;23;20507;-96
2021/07/04 08:42:46;;;;;;;6.50;5.90;;;26.20;87.10;;;;;;6161208;23;20426;-96
2021/07/04 08:45:13;;;;;;;6.43;5.97;;;26.20;87.10;;;;;;6160644;23;20817;-96
2021/07/04 08:47:42;;;;;;;7.07;6.47;;;26.30;87.30;;;;;;6161270;23;20434;-96
2021/07/04 08:50:12;;;;;;;6.70;6.07;;;26.20;87.20;;;;;;6161292;23;20407;-96
2021/07/04 08:52:39;;;;;;;6.50;6.00;;;26.20;87.20;;;;;;6160712;23;20460;-96
2021/07/04 08:55:07;;;;;;;6.43;5.93;;;26.20;87.30;;;;;;6159994;23;20506;-96
2021/07/04 08:57:34;;;;;;;7.03;6.33;;;26.20;87.40;;;;;;6158548;23;20421;-96
2021/07/04 09:00:01;;;;;;;6.63;6.00;;;26.20;87.60;;;;;;6158999;23;20390;-96
2021/07/04 09:02:31;;;;;;;6.10;5.70;;;26.30;88.20;;;;;;6159729;23;20418;-96
2021/07/04 09:05:01;;;;;;;7.13;6.43;;;26.20;87.30;;;;;;6162888;23;20445;-92
2021/07/04 09:07:30;;;;;;;5.80;5.30;;;26.20;87.10;;;;;;6171086;23;20416;-96
2021/07/04 09:09:58;;;;;;;6.20;5.70;;;26.20;87.00;;;;;;6168444;23;20402;-96
2021/07/04 09:12:36;;;;;;;5.93;5.53;;;26.20;87.10;;;;;;6163022;23;20458;-96
2021/07/04 09:15:13;;;;;;;6.53;5.57;;;26.20;87.10;;;;;;6162507;23;20398;-96
2021/07/04 09:17:44;;;;;;;5.57;5.17;;;26.20;87.00;;;;;;6162405;23;20407;-96
2021/07/04 09:20:14;;;;;;;6.20;5.70;;;26.20;86.80;;;;;;6160538;23;20419;-91
2021/07/04 09:22:43;;;;;;;6.50;4.97;;;26.20;86.60;;;;;;6156877;23;20397;-90
2021/07/04 09:25:13;;;;;;;5.83;5.13;;;26.20;86.80;;;;;;6156779;23;20432;-91
2021/07/04 09:27:41;;;;;;;5.57;5.07;;;26.30;86.80;;;;;;6156666;23;20412;-90
2021/07/04 09:30:12;;;;;;;5.97;5.57;;;26.40;86.60;;;;;;6156499;23;20411;-89
2021/07/04 09:32:46;;;;;;;5.93;5.40;;;26.30;86.40;;;;;;6156392;23;20758;-90
2021/07/04 09:35:19;;;;;;;6.37;5.77;;;26.30;87.50;;;;;;6156152;23;20493;-90
2021/07/04 09:37:48;;;;;;;5.10;4.77;;;26.40;86.90;;;;;;6156477;23;20431;-91
2021/07/04 09:40:20;;;;;;;4.77;4.37;;;26.30;86.60;;;;;;6156273;23;20400;-90
2021/07/04 09:43:04;;;;;;;5.00;4.60;;;26.40;86.50;;;;;;6156333;23;20479;-90
2021/07/04 09:45:44;;;;;;;6.10;5.70;;;26.40;86.40;;;;;;6156839;23;20399;-91
2021/07/04 09:48:11;;;;;;;5.00;4.70;;;26.40;86.30;;;;;;6156539;23;20403;-91
2021/07/04 09:50:41;;;;;;;4.23;3.93;;;26.40;86.30;;;;;;6156642;23;20785;-91
2021/07/04 09:53:08;;;;;;;5.23;4.93;;;26.40;86.10;;;;;;6156708;23;20814;-93
2021/07/04 09:55:36;;;;;;;4.67;4.37;;;26.40;86.50;;;;;;6158824;23;20411;-96
2021/07/04 09:58:05;;;;;;;5.37;4.87;;;26.40;86.60;;;;;;6160725;23;20416;-96
2021/07/04 10:00:33;;;;;;;5.90;5.50;;;26.40;86.80;;;;;;6160146;23;20416;-96
2021/07/04 10:03:12;;;;;;;7.13;4.80;;;26.40;87.00;;;;;;6159494;23;20427;-96
2021/07/04 10:05:43;;;;;;;5.30;5.00;;;26.40;86.90;;;;;;6159396;23;20419;-96
2021/07/04 10:08:21;;;;;;;5.67;5.30;;;26.40;87.00;;;;;;6158907;23;20763;-96
2021/07/04 10:10:49;;;;;;;4.87;4.57;;;26.50;87.10;;;;;;6158855;23;20782;-96
2021/07/04 10:13:16;;;;;;;5.20;4.80;;;26.40;86.90;;;;;;6157782;23;20447;-96
2021/07/04 10:15:43;;;;;;;4.73;4.43;;;26.40;86.90;;;;;;6158129;23;20503;-96
2021/07/04 10:18:12;;;;;;;4.30;4.00;;;26.40;86.90;;;;;;6161493;23;20448;-96
2021/07/04 10:20:42;;;;;;;5.00;4.70;;;26.40;86.90;;;;;;6160669;23;20414;-96
2021/07/04 10:23:13;;;;;;;4.57;4.27;;;26.40;86.80;;;;;;6162609;23;20408;-96
2021/07/04 10:25:43;;;;;;;5.10;4.70;;;26.40;87.10;;;;;;6161958;23;20399;-96
2021/07/04 10:28:12;;;;;;;4.00;3.80;;;26.40;86.80;;;;;;6159499;23;20408;-92
2021/07/04 10:30:41;;;;;;;4.50;4.20;;;26.40;86.80;;;;;;6159389;23;20414;-96
2021/07/04 10:33:16;;;;;;;4.90;4.60;;;26.40;86.70;;;;;;6158054;23;21023;-96
2021/07/04 10:36:04;;;;;;;5.10;4.70;;;26.40;87.10;;;;;;6158796;23;20418;-96
2021/07/04 10:38:54;;;;;;;4.50;4.20;;;26.40;87.00;;;;;;6157666;23;20482;-96
2021/07/04 10:41:23;;;;;;;4.57;4.17;;;26.40;87.10;;;;;;6159783;23;20404;-96
2021/07/04 10:44:02;;;;;;;4.77;4.47;;;26.30;87.00;;;;;;6173212;23;20408;-94
2021/07/04 10:47:03;;;;;;;4.60;4.30;;;26.30;87.10;;;;;;6183705;23;20394;-94
2021/07/04 10:49:39;;;;;;;4.87;4.53;;;26.40;87.20;;;;;;6158822;23;20882;-96
2021/07/04 10:52:10;;;;;;;4.87;4.47;;;26.30;87.40;;;;;;6157710;23;20438;-96
2021/07/04 10:54:46;;;;;;;5.20;4.90;;;26.30;87.60;;;;;;6159816;23;20496;-96
2021/07/04 10:57:14;;;;;;;5.30;4.83;;;26.30;87.70;;;;;;6159471;23;20438;-96
2021/07/04 11:00:19;;;;;;;6.00;5.33;;;26.30;87.80;;;;;;6159072;23;20431;-95
2021/07/04 11:02:49;;;;;;;5.57;4.77;;;26.30;87.80;;;;;;6160331;23;20395;-95
2021/07/04 11:05:17;;;;;;;5.37;4.97;;;26.30;88.00;;;;;;6160121;23;20905;-96
2021/07/04 11:08:10;;;;;;;5.03;4.60;;;26.30;88.00;;;;;;6158577;23;20407;-95
2021/07/04 11:10:39;;;;;;;4.97;4.47;;;26.30;88.00;;;;;;6159968;23;20410;-96
2021/07/04 11:13:33;;;;;;;4.40;4.10;;;26.30;88.10;;;;;;6133535;23;20443;-95
2021/07/04 11:16:28;;;;;;;5.00;4.50;;;26.30;88.00;;;;;;6158863;23;20483;-95
2021/07/04 11:19:13;;;;;;;4.10;3.80;;;26.30;88.00;;;;;;6158816;23;20475;-96
2021/07/04 11:22:03;;;;;;;4.87;4.47;;;26.30;87.90;;;;;;6159927;23;20498;-96
2021/07/04 11:24:32;;;;;;;4.30;3.90;;;26.30;87.70;;;;;;6130429;23;20447;-95
2021/07/04 11:27:25;;;;;;;5.07;4.60;;;26.30;87.60;;;;;;6158693;23;20895;-96
2021/07/04 11:30:25;;;;;;;3.93;3.73;;;26.30;87.60;;;;;;6158232;23;20408;-96
2021/07/04 11:33:37;;;;;;;4.13;3.83;;;26.40;87.80;;;;;;6158719;23;20474;-93
2021/07/04 11:36:08;;;;;;;4.40;4.10;;;26.40;87.80;;;;;;6158025;23;20795;-94
2021/07/04 11:38:37;;;;;;;4.70;4.27;;;26.40;87.70;;;;;;6158524;23;20481;-95
2021/07/04 11:41:07;;;;;;;4.20;3.80;;;26.40;88.50;;;;;;6158883;23;20884;-96
2021/07/04 11:43:38;;;;;;;4.57;4.07;;;26.40;87.40;;;;;;6158187;23;20427;-95
2021/07/04 11:46:08;;;;;;;3.77;3.53;;;26.40;87.60;;;;;;6159017;23;20459;-95
2021/07/04 11:49:03;;;;;;;4.57;4.20;;;26.40;87.40;;;;;;6159097;23;20472;-96
2021/07/04 11:51:36;;;;;;;4.57;4.17;;;26.40;87.60;;;;;;6159419;23;20438;-95
2021/07/04 11:54:06;;;;;;;5.40;4.03;;;26.40;87.70;;;;;;6158737;23;20450;-96
2021/07/04 11:56:36;;;;;;;5.00;4.13;;;26.40;87.70;;;;;;6159480;23;20429;-95
2021/07/04 11:59:14;;;;;;;4.10;3.80;;;26.40;87.60;;;;;;6158486;23;20806;-93
2021/07/04 12:01:44;;;;;;;4.03;3.83;;;26.40;87.60;;;;;;6158863;23;20482;-94
2021/07/04 12:04:11;;;;;;;4.20;3.90;;;26.30;87.70;;;;;;6158881;23;20550;-94
2021/07/04 12:06:59;;;;;;;4.00;3.80;;;26.30;87.70;;;;;;6158774;23;20494;-95
2021/07/04 12:09:38;;;;;;;4.40;4.10;;;26.30;87.70;;;;;;6159280;23;20411;-95
2021/07/04 12:12:08;;;;;;;4.90;4.60;;;26.30;87.90;;;;;;6160771;23;20785;-95
2021/07/04 12:14:37;;;;;;;4.50;4.20;;;26.30;88.00;;;;;;6159217;23;20792;-94
2021/07/04 12:17:20;;;;;;;4.63;4.30;;;26.30;88.00;;;;;;6159544;23;20494;-96
2021/07/04 12:19:52;;;;;;;4.40;4.20;;;26.30;88.00;;;;;;6162193;23;20413;-95
2021/07/04 12:22:22;;;;;;;5.03;4.63;;;26.30;88.00;;;;;;6165111;23;20419;-94
2021/07/04 12:24:49;;;;;;;5.03;4.73;;;26.30;88.00;;;;;;6162997;23;20926;-93
2021/07/04 12:27:19;;;;;;;4.80;4.40;;;26.30;88.00;;;;;;6159506;23;20442;-96
2021/07/04 12:30:00;;;;;;;3.87;3.60;;;26.30;88.00;;;;;;6158437;23;20466;-95
2021/07/04 12:32:28;;;;;;;4.53;4.23;;;26.30;87.90;;;;;;6157613;23;20431;-95
2021/07/04 12:34:55;;;;;;;4.33;4.00;;;26.30;88.00;;;;;;6157569;23;20483;-95
2021/07/04 12:37:22;;;;;;;4.23;3.90;;;26.30;88.00;;;;;;6157564;23;20434;-95
2021/07/04 12:39:49;;;;;;;4.17;3.87;;;26.30;88.00;;;;;;6157396;23;20411;-96
2021/07/04 12:42:25;;;;;;;8.70;4.37;;;26.30;88.00;;;;;;6158263;23;20447;-94
2021/07/04 12:45:03;;;;;;;5.07;3.67;;;26.30;88.00;;;;;;6157999;23;20442;-94
2021/07/04 12:47:30;;;;;;;4.17;3.40;;;26.30;88.00;;;;;;6131753;23;20407;-96
2021/07/04 12:50:06;;;;;;;7.00;3.70;;;26.30;87.80;;;;;;6157489;23;20442;-96
2021/07/04 12:52:33;;;;;;;4.03;3.63;;;26.30;87.80;;;;;;6157739;23;20479;-96
2021/07/04 12:55:00;;;;;;;7.67;4.00;;;26.30;87.80;;;;;;6157995;23;20497;-96
2021/07/04 12:57:33;;;;;;;9.07;3.90;;;26.30;87.80;;;;;;6158096;23;20498;-96
2021/07/04 13:00:15;;;;;;;8.93;3.87;;;26.30;88.50;;;;;;6158102;23;20732;-95
2021/07/04 13:02:46;;;;;;;11.50;4.13;;;26.30;87.60;;;;;;6157539;23;20475;-95
2021/07/04 13:05:14;;;;;;;6.73;3.93;;;26.30;87.60;;;;;;6158011;23;20955;-96
2021/07/04 13:07:43;;;;;;;13.73;5.10;;;26.30;87.50;;;;;;6158405;23;20438;-95
2021/07/04 13:10:11;;;;;;;8.43;4.60;;;26.30;87.50;;;;;;6157575;23;20408;-96
2021/07/04 13:12:41;;;;;;;6.77;4.20;;;26.30;87.50;;;;;;6157969;23;20451;-96
2021/07/04 13:15:13;;;;;;;11.20;4.37;;;26.30;87.40;;;;;;6157962;23;20497;-96
2021/07/04 13:17:42;;;;;;;5.30;4.50;;;26.30;87.40;;;;;;6157511;23;20456;-96
2021/07/04 13:20:21;;;;;;;6.70;3.87;;;26.40;87.50;;;;;;6132548;23;20408;-95